createdAt,value
2019-04-06T00:00:11.414Z,56.68
2019-04-06T03:02:43.021Z,50.43
2019-04-06T03:05:12.432Z,45.83
2019-04-06T03:07:41.811Z,44.67
2019-04-06T03:10:11.406Z,54.13
2019-04-06T03:12:42.012Z,43.52
2019-04-06T03:15:11.430Z,44.65
2019-04-06T03:17:41.071Z,52.23
2019-04-06T03:20:11.058Z,51.53
2019-04-06T03:22:40.650Z,50.60
2019-04-06T03:25:10.505Z,43.33
2019-04-06T03:27:39.771Z,44.38
2019-04-06T03:30:09.405Z,47.55
2019-04-06T03:32:38.725Z,45.20
2019-04-06T03:35:08.343Z,49.95
2019-04-06T03:37:37.723Z,47.53
2019-04-06T03:40:07.439Z,48.30
2019-04-06T03:42:36.759Z,57.70
2019-04-06T03:45:07.813Z,44.03
2019-04-06T03:47:37.080Z,57.95
2019-04-06T03:50:07.863Z,45.67
2019-04-06T03:52:37.167Z,37.45
2019-04-06T03:55:08.211Z,43.08
2019-04-06T03:57:37.494Z,43.90
2019-04-06T04:00:07.939Z,46.30
2019-04-06T04:02:37.354Z,52.80
2019-04-06T04:05:07.007Z,45.00
2019-04-06T04:07:36.271Z,50.17
2019-04-06T04:10:07.215Z,46.28
2019-04-06T04:12:36.491Z,49.53
2019-04-06T04:15:07.077Z,53.35
2019-04-06T04:17:36.463Z,40.83
2019-04-06T04:20:06.971Z,40.80
2019-04-06T04:22:36.556Z,47.83
2019-04-06T04:25:06.399Z,38.80
2019-04-06T04:27:35.678Z,44.53
2019-04-06T04:30:07.878Z,47.65
2019-04-06T04:32:37.159Z,44.67
2019-04-06T04:35:06.590Z,42.27
2019-04-06T04:37:35.872Z,42.38
2019-04-06T04:40:06.664Z,29.67
2019-04-06T04:42:35.962Z,32.45
2019-04-06T04:45:05.967Z,32.28
2019-04-06T04:47:35.234Z,37.38
2019-04-06T04:50:05.875Z,26.77
2019-04-06T04:52:35.391Z,25.90
2019-04-06T04:55:07.167Z,37.00
2019-04-06T04:57:40.873Z,36.83
2019-04-06T05:00:07.907Z,31.82
2019-04-06T05:02:37.227Z,36.10
2019-04-06T05:05:09.400Z,34.65
2019-04-06T05:07:38.422Z,34.15
2019-04-06T05:10:08.050Z,44.00
2019-04-06T05:12:37.320Z,41.92
2019-04-06T05:15:12.278Z,39.80
2019-04-06T05:17:41.660Z,30.15
2019-04-06T05:20:12.358Z,31.35
2019-04-06T05:22:41.575Z,38.50
2019-04-06T05:25:11.152Z,39.60
2019-04-06T05:27:51.292Z,31.15
2019-04-06T05:30:12.719Z,32.48
2019-04-06T05:32:41.997Z,29.80
2019-04-06T05:35:11.430Z,31.40
2019-04-06T05:37:40.709Z,32.28
2019-04-06T05:40:10.401Z,31.73
2019-04-06T05:42:39.674Z,41.13
2019-04-06T05:45:09.246Z,37.80
2019-04-06T05:47:38.518Z,36.13
2019-04-06T05:50:08.122Z,43.70
2019-04-06T05:52:37.398Z,51.13
2019-04-06T05:55:07.277Z,41.02
2019-04-06T05:57:37.578Z,46.92
2019-04-06T06:00:10.135Z,39.10
2019-04-06T06:02:41.289Z,43.65
2019-04-06T06:05:11.262Z,42.25
2019-04-06T06:07:40.822Z,39.23
2019-04-06T06:10:10.527Z,40.55
2019-04-06T06:12:39.892Z,45.43
2019-04-06T06:15:09.390Z,45.28
2019-04-06T06:17:38.804Z,41.00
2019-04-06T06:20:08.646Z,41.35
2019-04-06T06:22:38.190Z,41.83
2019-04-06T06:25:08.612Z,41.83
2019-04-06T06:27:37.870Z,38.67
2019-04-06T06:30:10.386Z,35.65
2019-04-06T06:32:39.902Z,36.95
2019-04-06T06:35:09.413Z,44.25
2019-04-06T06:37:38.682Z,43.90
2019-04-06T06:40:08.318Z,32.63
2019-04-06T06:42:37.829Z,36.75
2019-04-06T06:45:08.927Z,39.73
2019-04-06T06:47:39.166Z,45.17
2019-04-06T06:50:20.171Z,41.23
2019-04-06T06:52:49.462Z,45.43
2019-04-06T06:55:18.727Z,37.60
2019-04-06T06:57:48.001Z,39.60
2019-04-06T07:00:17.410Z,44.08
2019-04-06T07:02:46.682Z,45.33
2019-04-06T07:05:16.134Z,39.78
2019-04-06T07:07:45.697Z,35.95
2019-04-06T07:10:15.402Z,37.08
2019-04-06T07:12:44.829Z,41.73
2019-04-06T07:15:14.298Z,41.70
2019-04-06T07:17:43.577Z,44.70
2019-04-06T07:20:13.106Z,45.65
2019-04-06T07:22:43.340Z,49.10
2019-04-06T07:25:12.962Z,48.75
2019-04-06T07:27:42.566Z,39.55
2019-04-06T07:30:12.281Z,42.75
2019-04-06T07:32:41.546Z,43.45
2019-04-06T07:35:11.264Z,41.92
2019-04-06T07:37:40.536Z,42.78
2019-04-06T07:40:10.255Z,44.08
2019-04-06T07:42:39.522Z,42.98
2019-04-06T07:45:09.791Z,45.70
2019-04-06T07:47:39.078Z,41.85
2019-04-06T07:50:09.972Z,40.88
2019-04-06T07:52:40.342Z,46.50
2019-04-06T07:55:10.586Z,46.18
2019-04-06T07:57:39.903Z,46.10
2019-04-06T08:00:10.783Z,44.53
2019-04-06T08:02:40.126Z,45.48
2019-04-06T08:05:10.120Z,39.38
2019-04-06T08:07:39.490Z,46.30
2019-04-06T08:10:09.102Z,43.10
2019-04-06T08:12:38.370Z,38.28
2019-04-06T08:15:08.286Z,45.80
2019-04-06T08:17:37.591Z,42.62
2019-04-06T08:20:09.834Z,39.85
2019-04-06T08:22:39.239Z,41.58
2019-04-06T08:25:08.798Z,39.00
2019-04-06T08:27:38.399Z,44.60
2019-04-06T08:30:09.513Z,44.70
2019-04-06T08:32:38.925Z,38.28
2019-04-06T08:35:08.682Z,36.80
2019-04-06T08:37:39.022Z,38.65
2019-04-06T08:40:08.470Z,43.63
2019-04-06T08:42:37.738Z,38.98
2019-04-06T08:45:07.449Z,39.10
2019-04-06T08:47:36.724Z,40.15
2019-04-06T08:50:08.211Z,41.42
2019-04-06T08:52:37.746Z,40.38
2019-04-06T08:55:07.491Z,39.53
2019-04-06T08:57:36.895Z,41.90
2019-04-06T09:00:09.587Z,44.00
2019-04-06T09:02:38.869Z,44.77
2019-04-06T09:05:08.666Z,45.52
2019-04-06T09:07:40.481Z,46.18
2019-04-06T09:10:10.865Z,47.25
2019-04-06T09:12:40.139Z,40.60
2019-04-06T09:15:10.059Z,41.88
2019-04-06T09:17:39.509Z,44.45
2019-04-06T09:20:09.769Z,45.15
2019-04-06T09:22:40.387Z,44.73
2019-04-06T09:25:09.663Z,39.20
2019-04-06T09:27:38.942Z,38.17
2019-04-06T09:30:08.635Z,38.88
2019-04-06T09:32:37.939Z,37.58
2019-04-06T09:35:07.326Z,41.25
2019-04-06T09:37:36.594Z,40.20
2019-04-06T09:40:07.170Z,37.50
2019-04-06T09:42:36.479Z,39.25
2019-04-06T09:45:12.822Z,37.80
2019-04-06T09:50:24.417Z,44.45
2019-04-06T09:53:04.108Z,38.50
2019-04-06T09:55:35.127Z,41.85
2019-04-06T09:58:21.418Z,41.85
2019-04-06T10:00:55.254Z,39.45
2019-04-06T10:03:41.296Z,42.23
2019-04-06T10:06:21.330Z,40.55
2019-04-06T10:09:10.349Z,40.12
2019-04-06T10:11:56.669Z,41.55
2019-04-06T10:14:27.614Z,40.43
2019-04-06T10:17:16.619Z,38.48
2019-04-06T10:19:47.667Z,38.70
2019-04-06T10:22:18.651Z,41.42
2019-04-06T10:24:55.276Z,38.75
2019-04-06T10:27:26.192Z,39.25
2019-04-06T10:30:00.047Z,41.25
2019-04-06T10:32:43.003Z,44.80
2019-04-06T10:35:23.227Z,45.38
2019-04-06T10:38:03.143Z,42.03
2019-04-06T10:40:43.240Z,40.70
2019-04-06T10:43:26.063Z,41.13
2019-04-06T10:46:13.727Z,43.92
2019-04-06T10:48:47.624Z,39.30
2019-04-06T10:51:18.623Z,42.73
2019-04-06T10:53:49.673Z,42.13
2019-04-06T10:56:20.657Z,44.33
2019-04-06T10:58:54.574Z,38.95
2019-04-06T11:01:43.327Z,46.05
2019-04-06T11:04:14.494Z,42.17
2019-04-06T11:06:51.138Z,42.75
2019-04-06T11:09:37.268Z,39.20
2019-04-06T11:12:14.455Z,42.65
2019-04-06T11:14:51.471Z,44.53
2019-04-06T11:17:25.504Z,40.83
2019-04-06T11:19:59.528Z,45.05
2019-04-06T11:22:48.819Z,40.70
2019-04-06T11:25:19.738Z,36.88
2019-04-06T11:27:59.881Z,36.95
2019-04-06T11:30:33.868Z,36.15
2019-04-06T11:33:10.919Z,36.23
2019-04-06T11:35:44.550Z,38.58
2019-04-06T11:38:18.115Z,42.65
2019-04-06T11:40:51.987Z,37.15
2019-04-06T11:43:23.238Z,35.43
2019-04-06T11:45:57.394Z,38.88
2019-04-06T11:48:31.551Z,29.87
2019-04-06T11:51:18.943Z,24.10
2019-04-06T11:54:06.675Z,25.57
2019-04-06T11:56:37.638Z,30.62
2019-04-06T11:59:17.799Z,29.23
2019-04-06T12:01:57.391Z,26.95
2019-04-06T12:04:30.749Z,26.42
2019-04-06T12:07:01.969Z,23.67
2019-04-06T12:09:33.183Z,23.75
2019-04-06T12:12:20.634Z,23.70
2019-04-06T12:14:54.518Z,23.67
2019-04-06T12:17:31.928Z,23.38
2019-04-06T12:20:02.939Z,22.30
2019-04-06T12:22:35.987Z,21.77
2019-04-06T12:25:08.418Z,25.05
2019-04-06T12:27:57.722Z,21.70
2019-04-06T12:30:37.327Z,21.42
2019-04-06T12:33:01.819Z,21.73
2019-04-06T12:35:42.026Z,30.02
2019-04-06T12:38:15.597Z,30.37
2019-04-06T12:40:46.518Z,32.78
2019-04-06T12:43:20.223Z,32.58
2019-04-06T12:45:51.434Z,29.10
2019-04-06T12:48:34.593Z,24.50
2019-04-06T12:51:17.805Z,21.07
2019-04-06T12:53:57.736Z,27.07
2019-04-06T12:56:32.593Z,19.73
2019-04-06T12:59:20.052Z,16.52
2019-04-06T13:01:53.647Z,16.97
2019-04-06T13:04:24.883Z,16.73
2019-04-06T13:07:14.016Z,19.62
2019-04-06T13:09:54.418Z,16.73
2019-04-06T13:12:25.659Z,16.82
2019-04-06T13:15:08.886Z,20.35
2019-04-06T13:17:49.331Z,17.52
2019-04-06T13:20:36.395Z,18.27
2019-04-06T13:23:16.445Z,17.15
2019-04-06T13:25:56.589Z,16.15
2019-04-06T13:28:43.635Z,17.00
2019-04-06T13:31:23.322Z,18.98
2019-04-06T13:33:54.638Z,18.27
2019-04-06T13:36:28.911Z,16.20
2019-04-06T13:39:05.839Z,17.92
2019-04-06T13:41:37.186Z,17.57
2019-04-06T13:44:08.114Z,18.80
2019-04-06T13:46:39.026Z,18.95
2019-04-06T13:49:09.947Z,18.55
2019-04-06T13:51:40.857Z,18.77
2019-04-06T13:54:17.772Z,18.10
2019-04-06T13:57:00.873Z,19.42
2019-04-06T13:59:31.817Z,20.60
2019-04-06T14:02:12.103Z,16.57
2019-04-06T14:04:55.027Z,16.93
2019-04-06T14:07:34.955Z,19.32
2019-04-06T14:10:16.643Z,16.40
2019-04-06T14:12:50.410Z,16.45
2019-04-06T14:15:21.330Z,16.52
2019-04-06T14:18:01.397Z,15.68
2019-04-06T14:20:35.062Z,15.32
2019-04-06T14:23:22.365Z,14.35
2019-04-06T14:25:55.976Z,14.45
2019-04-06T14:28:43.279Z,14.23
2019-04-06T14:31:28.167Z,13.80
2019-04-06T14:33:52.987Z,14.43
2019-04-06T14:36:29.922Z,13.38
2019-04-06T14:39:06.903Z,11.80
2019-04-06T14:41:38.835Z,15.53
2019-04-06T14:44:10.034Z,14.55
2019-04-06T14:46:43.661Z,16.70
2019-04-06T14:49:33.379Z,13.45
2019-04-06T14:52:20.501Z,17.37
2019-04-06T14:54:51.738Z,16.67
2019-04-06T14:57:22.630Z,13.15
2019-04-06T15:00:00.066Z,15.93
2019-04-06T15:02:34.209Z,15.15
2019-04-06T15:05:05.982Z,16.25
2019-04-06T15:07:36.940Z,13.58
2019-04-06T15:10:14.101Z,15.55
2019-04-06T15:13:01.352Z,15.03
2019-04-06T15:15:41.731Z,14.00
2019-04-06T15:18:15.967Z,16.27
2019-04-06T15:21:01.986Z,13.95
2019-04-06T15:23:36.840Z,15.85
2019-04-06T15:26:12.147Z,14.43
2019-04-06T15:29:01.085Z,14.98
2019-04-06T15:31:51.666Z,17.27
2019-04-06T15:34:23.044Z,14.23
2019-04-06T15:36:57.771Z,13.62
2019-04-06T15:39:34.947Z,20.20
2019-04-06T15:42:17.945Z,16.32
2019-04-06T15:44:51.598Z,16.95
2019-04-06T15:47:31.762Z,185.00
2019-04-06T15:50:02.715Z,63.30
2019-04-06T15:52:39.175Z,121.05
2019-04-06T15:55:13.339Z,19.05
2019-04-06T15:57:55.977Z,26.37
2019-04-06T16:00:43.143Z,24.12
2019-04-06T16:03:16.848Z,17.87
2019-04-06T16:06:04.045Z,16.70
2019-04-06T16:08:34.958Z,20.60
2019-04-06T16:11:08.755Z,15.23
2019-04-06T16:13:49.814Z,45.90
2019-04-06T16:16:20.802Z,17.65
2019-04-06T16:18:57.431Z,23.83
2019-04-06T16:21:31.746Z,35.92
2019-04-06T16:24:18.122Z,25.00
2019-04-06T16:26:49.536Z,43.52
2019-04-06T16:30:07.281Z,28.32
2019-04-06T16:32:47.330Z,26.35
2019-04-06T16:35:21.172Z,25.55
2019-04-06T16:38:00.808Z,26.12
2019-04-06T16:40:31.719Z,18.15
2019-04-06T16:43:19.237Z,19.40
2019-04-06T16:45:50.204Z,20.77
2019-04-06T16:48:26.831Z,22.20
2019-04-06T16:50:57.773Z,20.57
2019-04-06T16:53:31.675Z,22.62
2019-04-06T16:56:03.264Z,19.48
2019-04-06T16:58:41.463Z,20.60
2019-04-06T17:01:18.658Z,19.75
2019-04-06T17:03:52.732Z,18.23
2019-04-06T17:06:40.016Z,18.73
2019-04-06T17:09:14.053Z,18.95
2019-04-06T17:11:54.374Z,21.20
2019-04-06T17:14:25.518Z,19.73
2019-04-06T17:17:12.904Z,24.02
2019-04-06T17:19:52.735Z,23.32
2019-04-06T17:22:32.704Z,20.72
2019-04-06T17:25:15.558Z,19.00
2019-04-06T17:27:49.332Z,23.40
2019-04-06T17:30:20.954Z,21.95
2019-04-06T17:32:51.998Z,24.85
2019-04-06T17:35:25.597Z,24.67
2019-04-06T17:37:56.655Z,25.02
2019-04-06T17:40:33.466Z,25.85
2019-04-06T17:43:04.498Z,24.30
2019-04-06T17:45:52.137Z,23.27
2019-04-06T17:48:26.178Z,26.37
2019-04-06T17:51:09.319Z,20.50
2019-04-06T17:53:58.001Z,23.60
2019-04-06T17:56:28.947Z,25.15
2019-04-06T17:59:02.970Z,22.87
2019-04-06T18:01:43.130Z,23.22
2019-04-06T18:04:20.033Z,22.22
2019-04-06T18:07:07.552Z,22.67
2019-04-06T18:09:44.763Z,23.12
2019-04-06T18:12:16.107Z,21.82
2019-04-06T18:14:45.382Z,24.40
2019-04-06T18:17:15.188Z,24.57
2019-04-06T18:19:44.820Z,26.02
2019-04-06T18:22:23.044Z,25.10
2019-04-06T18:24:52.450Z,30.43
2019-04-06T18:27:21.719Z,24.52
2019-04-06T18:29:52.615Z,27.22
2019-04-06T18:32:39.906Z,27.15
2019-04-06T18:35:10.817Z,27.95
2019-04-06T18:37:42.316Z,26.10
2019-04-06T18:40:13.663Z,26.75
2019-04-06T18:42:42.939Z,26.73
2019-04-06T18:45:12.662Z,25.48
2019-04-06T18:47:42.452Z,26.73
2019-04-06T18:50:12.888Z,26.82
2019-04-06T18:52:42.521Z,26.77
2019-04-06T18:55:12.134Z,26.05
2019-04-06T18:57:41.737Z,25.27
2019-04-06T19:00:13.803Z,26.30
2019-04-06T19:02:43.667Z,27.67
2019-04-06T19:05:13.574Z,32.73
2019-04-06T19:07:43.028Z,28.92
2019-04-06T19:10:12.598Z,24.23
2019-04-06T19:12:41.925Z,24.57
2019-04-06T19:15:11.430Z,23.40
2019-04-06T19:17:40.710Z,22.25
2019-04-06T19:20:11.068Z,20.82
2019-04-06T19:22:41.003Z,24.90
2019-04-06T19:25:10.916Z,24.20
2019-04-06T19:27:40.648Z,22.35
2019-04-06T19:30:11.162Z,24.47
2019-04-06T19:32:40.435Z,21.45
2019-04-06T19:35:10.271Z,21.97
2019-04-06T19:37:39.879Z,24.25
2019-04-06T19:40:09.898Z,26.20
2019-04-06T19:42:39.655Z,25.57
2019-04-06T19:45:10.334Z,25.02
2019-04-06T19:47:39.621Z,21.93
2019-04-06T19:50:09.552Z,26.77
2019-04-06T19:52:39.252Z,22.77
2019-04-06T19:55:09.193Z,24.47
2019-04-06T19:57:38.800Z,25.12
2019-04-06T20:00:09.120Z,26.90
2019-04-06T20:02:39.174Z,23.80
2019-04-06T20:05:08.732Z,26.57
2019-04-06T20:07:38.254Z,24.75
2019-04-06T20:10:08.464Z,25.62
2019-04-06T20:12:37.719Z,23.85
2019-04-06T20:15:07.687Z,22.75
2019-04-06T20:17:37.475Z,24.92
2019-04-06T20:20:07.611Z,36.05
2019-04-06T20:22:37.620Z,31.70
2019-04-06T20:25:08.280Z,26.62
2019-04-06T20:27:37.782Z,28.62
2019-04-06T20:30:09.518Z,29.45
2019-04-06T20:32:39.161Z,29.63
2019-04-06T20:35:09.441Z,28.85
2019-04-06T20:37:38.838Z,24.50
2019-04-06T20:40:08.923Z,27.65
2019-04-06T20:42:38.248Z,24.52
2019-04-06T20:45:08.230Z,29.32
2019-04-06T20:47:37.608Z,27.20
2019-04-06T20:50:08.066Z,27.62
2019-04-06T20:52:37.467Z,28.95
2019-04-06T20:55:08.215Z,28.75
2019-04-06T20:57:38.341Z,28.55
2019-04-06T21:00:09.709Z,22.93
2019-04-06T21:02:39.544Z,30.55
2019-04-06T21:05:08.875Z,27.50
2019-04-06T21:07:38.159Z,24.90
2019-04-06T21:10:08.883Z,27.98
2019-04-06T21:12:38.719Z,28.27
2019-04-06T21:15:17.683Z,32.23
2019-04-06T21:17:40.002Z,34.33
2019-04-06T21:20:09.523Z,36.13
2019-04-06T21:22:39.561Z,28.32
2019-04-06T21:25:09.115Z,30.27
2019-04-06T21:27:38.383Z,30.43
2019-04-06T21:30:09.337Z,28.52
2019-04-06T21:32:38.746Z,39.58
2019-04-06T21:35:08.340Z,34.23
2019-04-06T21:37:37.855Z,34.95
2019-04-06T21:40:08.293Z,32.78
2019-04-06T21:42:37.692Z,32.35
2019-04-06T21:45:08.540Z,31.55
2019-04-06T21:47:37.974Z,29.23
2019-04-06T21:50:08.555Z,30.55
2019-04-06T21:52:38.825Z,27.40
2019-04-06T21:55:12.555Z,29.85
2019-04-06T21:57:41.981Z,29.80
2019-04-06T22:00:13.655Z,30.82
2019-04-06T22:02:44.660Z,28.83
2019-04-06T22:05:14.862Z,29.65
2019-04-06T22:07:49.778Z,26.70
2019-04-06T22:10:15.760Z,30.92
2019-04-06T22:12:45.064Z,25.68
2019-04-06T22:15:15.499Z,29.90
2019-04-06T22:17:44.772Z,26.97
2019-04-06T22:20:14.933Z,29.82
2019-04-06T22:22:44.316Z,33.48
2019-04-06T22:25:14.354Z,31.90
2019-04-06T22:27:43.802Z,32.93
2019-04-06T22:30:13.535Z,30.65
2019-04-06T22:32:42.796Z,29.45
2019-04-06T22:35:13.783Z,29.85
2019-04-06T22:37:43.047Z,29.10
2019-04-06T22:40:13.074Z,28.57
2019-04-06T22:42:42.407Z,26.10
2019-04-06T22:45:14.766Z,28.50
2019-04-06T22:47:44.082Z,30.10
2019-04-06T22:50:13.713Z,28.35
2019-04-06T22:52:43.458Z,27.22
2019-04-06T22:55:12.883Z,28.25
2019-04-06T22:57:42.482Z,26.70
2019-04-06T23:00:16.940Z,30.48
2019-04-06T23:02:51.218Z,28.25
2019-04-06T23:05:27.925Z,27.85
2019-04-06T23:07:57.244Z,25.90
2019-04-06T23:10:26.640Z,31.07
2019-04-06T23:12:56.454Z,26.25
2019-04-06T23:15:26.153Z,27.32
2019-04-06T23:17:55.746Z,25.60
2019-04-06T23:20:25.408Z,27.00
2019-04-06T23:22:54.875Z,28.30
2019-04-06T23:25:24.667Z,26.15
2019-04-06T23:27:53.938Z,28.35
2019-04-06T23:30:23.709Z,29.12
2019-04-06T23:32:53.507Z,31.12
2019-04-06T23:35:23.870Z,28.20
2019-04-06T23:37:53.443Z,30.72
2019-04-06T23:40:23.180Z,31.73
2019-04-06T23:42:52.632Z,32.58
2019-04-06T23:45:21.955Z,32.13
2019-04-06T23:47:51.239Z,30.72
2019-04-06T23:50:20.507Z,30.15
2019-04-06T23:52:50.531Z,27.80
2019-04-06T23:55:20.019Z,33.95
2019-04-06T23:57:49.452Z,33.95
